sensor_id;sensor_type;location;lat;lon;timestamp;P1;durP1;ratioP1;P2;durP2;ratioP2
19312;SDS011;9791;50.820;4.406;2022-08-30T00:01:03;9.98;;;3.67;;
19312;SDS011;9791;50.820;4.406;2022-08-30T00:03:38;11.93;;;3.92;;
19312;SDS011;9791;50.820;4.406;2022-08-30T00:06:09;7.90;;;3.60;;
19312;SDS011;9791;50.820;4.406;2022-08-30T00:08:36;10.90;;;4.72;;
19312;SDS011;9791;50.820;4.406;2022-08-30T00:11:03;12.05;;;3.97;;
19312;SDS011;9791;50.820;4.406;2022-08-30T00:13:29;9.77;;;3.92;;
19312;SDS011;9791;50.820;4.406;2022-08-30T00:15:56;10.32;;;4.90;;
19312;SDS011;9791;50.820;4.406;2022-08-30T00:18:22;9.00;;;4.65;;
19312;SDS011;9791;50.820;4.406;2022-08-30T00:20:48;8.65;;;3.80;;
19312;SDS011;9791;50.820;4.406;2022-08-30T00:23:15;9.90;;;4.20;;
19312;SDS011;9791;50.820;4.406;2022-08-30T00:25:42;11.32;;;4.90;;
19312;SDS011;9791;50.820;4.406;2022-08-30T00:28:08;10.25;;;4.50;;
19312;SDS011;9791;50.820;4.406;2022-08-30T00:30:35;10.40;;;4.00;;
19312;SDS011;9791;50.820;4.406;2022-08-30T00:33:01;9.88;;;4.00;;
19312;SDS011;9791;50.820;4.406;2022-08-30T00:35:27;9.68;;;4.15;;
19312;SDS011;9791;50.820;4.406;2022-08-30T00:37:53;11.40;;;4.85;;
19312;SDS011;9791;50.820;4.406;2022-08-30T00:40:19;8.73;;;4.00;;
19312;SDS011;9791;50.820;4.406;2022-08-30T00:42:46;9.25;;;4.13;;
19312;SDS011;9791;50.820;4.406;2022-08-30T00:45:17;14.30;;;4.70;;
19312;SDS011;9791;50.820;4.406;2022-08-30T00:47:44;8.40;;;4.00;;
19312;SDS011;9791;50.820;4.406;2022-08-30T00:50:11;8.57;;;3.80;;
19312;SDS011;9791;50.820;4.406;2022-08-30T00:52:38;10.23;;;4.00;;
19312;SDS011;9791;50.820;4.406;2022-08-30T00:55:05;12.75;;;5.03;;
19312;SDS011;9791;50.820;4.406;2022-08-30T00:57:31;13.52;;;4.72;;
19312;SDS011;9791;50.820;4.406;2022-08-30T00:59:59;8.05;;;4.20;;
19312;SDS011;9791;50.820;4.406;2022-08-30T01:02:26;11.15;;;4.65;;
19312;SDS011;9791;50.820;4.406;2022-08-30T01:04:54;12.38;;;5.00;;
19312;SDS011;9791;50.820;4.406;2022-08-30T01:07:20;12.52;;;4.93;;
19312;SDS011;9791;50.820;4.406;2022-08-30T01:09:46;9.23;;;4.32;;
19312;SDS011;9791;50.820;4.406;2022-08-30T01:12:12;9.50;;;4.53;;
19312;SDS011;9791;50.820;4.406;2022-08-30T01:14:38;9.18;;;4.15;;
19312;SDS011;9791;50.820;4.406;2022-08-30T01:17:05;13.25;;;5.50;;
19312;SDS011;9791;50.820;4.406;2022-08-30T01:19:39;10.98;;;4.75;;
19312;SDS011;9791;50.820;4.406;2022-08-30T01:24:53;10.27;;;4.70;;
19312;SDS011;9791;50.820;4.406;2022-08-30T01:27:21;9.77;;;4.70;;
19312;SDS011;9791;50.820;4.406;2022-08-30T01:29:47;8.18;;;4.68;;
19312;SDS011;9791;50.820;4.406;2022-08-30T01:32:15;11.38;;;4.40;;
19312;SDS011;9791;50.820;4.406;2022-08-30T01:34:42;9.07;;;4.50;;
19312;SDS011;9791;50.820;4.406;2022-08-30T01:37:09;11.68;;;5.07;;
19312;SDS011;9791;50.820;4.406;2022-08-30T01:39:35;9.77;;;4.60;;
19312;SDS011;9791;50.820;4.406;2022-08-30T01:42:01;12.77;;;5.30;;
19312;SDS011;9791;50.820;4.406;2022-08-30T01:44:28;10.05;;;5.15;;
19312;SDS011;9791;50.820;4.406;2022-08-30T01:46:54;11.93;;;5.10;;
19312;SDS011;9791;50.820;4.406;2022-08-30T01:49:20;14.55;;;4.97;;
19312;SDS011;9791;50.820;4.406;2022-08-30T01:51:46;9.52;;;4.78;;
19312;SDS011;9791;50.820;4.406;2022-08-30T01:54:12;8.25;;;5.03;;
19312;SDS011;9791;50.820;4.406;2022-08-30T01:56:38;10.13;;;4.63;;
19312;SDS011;9791;50.820;4.406;2022-08-30T01:59:04;14.20;;;4.95;;
19312;SDS011;9791;50.820;4.406;2022-08-30T02:01:31;11.20;;;5.60;;
19312;SDS011;9791;50.820;4.406;2022-08-30T02:03:58;10.02;;;4.57;;
19312;SDS011;9791;50.820;4.406;2022-08-30T02:06:24;11.45;;;4.85;;
19312;SDS011;9791;50.820;4.406;2022-08-30T02:08:50;15.70;;;4.70;;
19312;SDS011;9791;50.820;4.406;2022-08-30T02:11:16;14.07;;;5.90;;
19312;SDS011;9791;50.820;4.406;2022-08-30T02:13:43;10.40;;;5.15;;
19312;SDS011;9791;50.820;4.406;2022-08-30T02:16:11;11.93;;;5.32;;
19312;SDS011;9791;50.820;4.406;2022-08-30T02:18:37;12.23;;;5.55;;
19312;SDS011;9791;50.820;4.406;2022-08-30T02:21:04;10.18;;;5.68;;
19312;SDS011;9791;50.820;4.406;2022-08-30T02:23:30;13.52;;;5.88;;
19312;SDS011;9791;50.820;4.406;2022-08-30T02:25:56;19.75;;;6.40;;
19312;SDS011;9791;50.820;4.406;2022-08-30T02:28:22;12.02;;;4.97;;
19312;SDS011;9791;50.820;4.406;2022-08-30T02:30:49;14.05;;;5.43;;
19312;SDS011;9791;50.820;4.406;2022-08-30T02:33:16;7.35;;;4.68;;
19312;SDS011;9791;50.820;4.406;2022-08-30T02:35:42;14.95;;;5.80;;
19312;SDS011;9791;50.820;4.406;2022-08-30T02:38:08;14.05;;;5.50;;
19312;SDS011;9791;50.820;4.406;2022-08-30T02:40:34;14.43;;;5.18;;
19312;SDS011;9791;50.820;4.406;2022-08-30T02:43:00;13.23;;;5.68;;
19312;SDS011;9791;50.820;4.406;2022-08-30T02:45:26;15.48;;;5.65;;
19312;SDS011;9791;50.820;4.406;2022-08-30T02:47:52;11.38;;;5.63;;
19312;SDS011;9791;50.820;4.406;2022-08-30T02:50:20;15.93;;;5.63;;
19312;SDS011;9791;50.820;4.406;2022-08-30T02:52:46;12.50;;;5.30;;
19312;SDS011;9791;50.820;4.406;2022-08-30T02:55:13;12.70;;;5.10;;
19312;SDS011;9791;50.820;4.406;2022-08-30T02:57:39;15.40;;;5.85;;
19312;SDS011;9791;50.820;4.406;2022-08-30T03:00:06;12.07;;;6.65;;
19312;SDS011;9791;50.820;4.406;2022-08-30T03:02:33;13.88;;;5.70;;
19312;SDS011;9791;50.820;4.406;2022-08-30T03:04:59;9.90;;;5.43;;
19312;SDS011;9791;50.820;4.406;2022-08-30T03:07:25;14.90;;;5.47;;
19312;SDS011;9791;50.820;4.406;2022-08-30T03:09:51;14.60;;;5.72;;
19312;SDS011;9791;50.820;4.406;2022-08-30T03:12:17;13.10;;;5.50;;
19312;SDS011;9791;50.820;4.406;2022-08-30T03:14:43;9.80;;;5.43;;
19312;SDS011;9791;50.820;4.406;2022-08-30T03:17:09;13.15;;;5.55;;
19312;SDS011;9791;50.820;4.406;2022-08-30T03:19:35;14.90;;;5.90;;
19312;SDS011;9791;50.820;4.406;2022-08-30T03:22:02;12.70;;;5.28;;
19312;SDS011;9791;50.820;4.406;2022-08-30T03:24:28;9.90;;;5.65;;
19312;SDS011;9791;50.820;4.406;2022-08-30T03:26:56;14.73;;;6.10;;
19312;SDS011;9791;50.820;4.406;2022-08-30T03:29:22;7.80;;;5.03;;
19312;SDS011;9791;50.820;4.406;2022-08-30T03:31:48;13.68;;;5.47;;
19312;SDS011;9791;50.820;4.406;2022-08-30T03:34:14;14.55;;;6.10;;
19312;SDS011;9791;50.820;4.406;2022-08-30T03:36:40;10.23;;;5.60;;
19312;SDS011;9791;50.820;4.406;2022-08-30T03:39:07;13.00;;;6.07;;
19312;SDS011;9791;50.820;4.406;2022-08-30T03:41:34;17.17;;;6.10;;
19312;SDS011;9791;50.820;4.406;2022-08-30T03:44:00;11.60;;;5.65;;
19312;SDS011;9791;50.820;4.406;2022-08-30T03:46:27;11.77;;;5.40;;
19312;SDS011;9791;50.820;4.406;2022-08-30T03:48:53;12.07;;;5.18;;
19312;SDS011;9791;50.820;4.406;2022-08-30T03:51:23;10.38;;;6.10;;
19312;SDS011;9791;50.820;4.406;2022-08-30T03:53:49;10.45;;;5.72;;
19312;SDS011;9791;50.820;4.406;2022-08-30T03:56:15;12.23;;;5.72;;
19312;SDS011;9791;50.820;4.406;2022-08-30T03:58:41;12.82;;;5.70;;
19312;SDS011;9791;50.820;4.406;2022-08-30T04:01:08;11.50;;;5.57;;
19312;SDS011;9791;50.820;4.406;2022-08-30T04:03:33;17.52;;;5.78;;
19312;SDS011;9791;50.820;4.406;2022-08-30T04:06:00;12.23;;;7.57;;
19312;SDS011;9791;50.820;4.406;2022-08-30T04:08:26;11.68;;;6.07;;
19312;SDS011;9791;50.820;4.406;2022-08-30T04:10:53;12.85;;;6.32;;
19312;SDS011;9791;50.820;4.406;2022-08-30T04:13:20;10.65;;;5.32;;
19312;SDS011;9791;50.820;4.406;2022-08-30T04:15:46;17.52;;;6.20;;
19312;SDS011;9791;50.820;4.406;2022-08-30T04:18:12;11.43;;;6.55;;
19312;SDS011;9791;50.820;4.406;2022-08-30T04:20:38;14.25;;;6.88;;
19312;SDS011;9791;50.820;4.406;2022-08-30T04:23:05;16.23;;;6.68;;
19312;SDS011;9791;50.820;4.406;2022-08-30T04:25:31;11.18;;;6.38;;
19312;SDS011;9791;50.820;4.406;2022-08-30T04:27:57;10.43;;;6.18;;
19312;SDS011;9791;50.820;4.406;2022-08-30T04:30:23;12.10;;;6.70;;
19312;SDS011;9791;50.820;4.406;2022-08-30T04:32:49;11.60;;;6.60;;
19312;SDS011;9791;50.820;4.406;2022-08-30T04:35:15;10.45;;;6.05;;
19312;SDS011;9791;50.820;4.406;2022-08-30T04:37:42;12.68;;;6.68;;
19312;SDS011;9791;50.820;4.406;2022-08-30T04:40:08;10.52;;;6.60;;
19312;SDS011;9791;50.820;4.406;2022-08-30T04:42:34;18.65;;;6.22;;
19312;SDS011;9791;50.820;4.406;2022-08-30T04:45:01;14.50;;;7.03;;
19312;SDS011;9791;50.820;4.406;2022-08-30T04:47:28;12.10;;;6.30;;
19312;SDS011;9791;50.820;4.406;2022-08-30T04:49:54;10.65;;;6.32;;
19312;SDS011;9791;50.820;4.406;2022-08-30T04:52:20;11.05;;;6.63;;
19312;SDS011;9791;50.820;4.406;2022-08-30T04:54:46;11.57;;;6.68;;
19312;SDS011;9791;50.820;4.406;2022-08-30T04:57:13;14.50;;;6.30;;
19312;SDS011;9791;50.820;4.406;2022-08-30T04:59:39;13.77;;;6.78;;
19312;SDS011;9791;50.820;4.406;2022-08-30T05:02:05;11.85;;;6.65;;
19312;SDS011;9791;50.820;4.406;2022-08-30T05:04:31;11.75;;;6.53;;
19312;SDS011;9791;50.820;4.406;2022-08-30T05:06:57;14.32;;;7.03;;
19312;SDS011;9791;50.820;4.406;2022-08-30T05:09:23;14.13;;;6.95;;
19312;SDS011;9791;50.820;4.406;2022-08-30T05:11:49;13.48;;;6.65;;
19312;SDS011;9791;50.820;4.406;2022-08-30T05:14:15;14.80;;;7.20;;
19312;SDS011;9791;50.820;4.406;2022-08-30T05:16:41;12.13;;;6.55;;
19312;SDS011;9791;50.820;4.406;2022-08-30T05:19:07;11.30;;;6.82;;
19312;SDS011;9791;50.820;4.406;2022-08-30T05:21:33;10.48;;;7.28;;
19312;SDS011;9791;50.820;4.406;2022-08-30T05:23:59;13.88;;;6.63;;
19312;SDS011;9791;50.820;4.406;2022-08-30T05:26:26;13.43;;;7.32;;
19312;SDS011;9791;50.820;4.406;2022-08-30T05:28:52;12.98;;;7.10;;
19312;SDS011;9791;50.820;4.406;2022-08-30T05:33:45;13.45;;;6.72;;
19312;SDS011;9791;50.820;4.406;2022-08-30T05:36:12;14.02;;;7.10;;
19312;SDS011;9791;50.820;4.406;2022-08-30T05:38:39;14.48;;;6.80;;
19312;SDS011;9791;50.820;4.406;2022-08-30T05:41:06;13.07;;;6.88;;
19312;SDS011;9791;50.820;4.406;2022-08-30T05:43:32;13.68;;;7.05;;
19312;SDS011;9791;50.820;4.406;2022-08-30T05:45:59;14.60;;;7.43;;
19312;SDS011;9791;50.820;4.406;2022-08-30T05:48:25;12.93;;;6.60;;
19312;SDS011;9791;50.820;4.406;2022-08-30T05:50:59;9.60;;;6.75;;
19312;SDS011;9791;50.820;4.406;2022-08-30T05:53:25;12.32;;;6.32;;
19312;SDS011;9791;50.820;4.406;2022-08-30T05:55:51;11.75;;;6.57;;
19312;SDS011;9791;50.820;4.406;2022-08-30T05:58:17;12.15;;;6.28;;
19312;SDS011;9791;50.820;4.406;2022-08-30T06:00:43;11.60;;;6.57;;
19312;SDS011;9791;50.820;4.406;2022-08-30T06:03:09;13.52;;;6.63;;
19312;SDS011;9791;50.820;4.406;2022-08-30T06:05:36;13.30;;;6.57;;
19312;SDS011;9791;50.820;4.406;2022-08-30T06:08:03;12.82;;;6.10;;
19312;SDS011;9791;50.820;4.406;2022-08-30T06:10:30;12.18;;;6.38;;
19312;SDS011;9791;50.820;4.406;2022-08-30T06:12:56;14.20;;;6.43;;
19312;SDS011;9791;50.820;4.406;2022-08-30T06:15:22;11.57;;;6.03;;
19312;SDS011;9791;50.820;4.406;2022-08-30T06:17:48;9.52;;;6.05;;
19312;SDS011;9791;50.820;4.406;2022-08-30T06:20:14;12.98;;;6.18;;
19312;SDS011;9791;50.820;4.406;2022-08-30T06:22:42;8.45;;;6.10;;
19312;SDS011;9791;50.820;4.406;2022-08-30T06:25:09;10.73;;;6.60;;
19312;SDS011;9791;50.820;4.406;2022-08-30T06:27:35;13.65;;;6.20;;
19312;SDS011;9791;50.820;4.406;2022-08-30T06:30:01;13.05;;;5.95;;
19312;SDS011;9791;50.820;4.406;2022-08-30T06:32:27;16.38;;;6.53;;
19312;SDS011;9791;50.820;4.406;2022-08-30T06:34:53;14.55;;;6.47;;
19312;SDS011;9791;50.820;4.406;2022-08-30T06:37:19;11.15;;;6.68;;
19312;SDS011;9791;50.820;4.406;2022-08-30T06:39:45;14.38;;;6.93;;
19312;SDS011;9791;50.820;4.406;2022-08-30T06:42:11;11.13;;;5.75;;
19312;SDS011;9791;50.820;4.406;2022-08-30T06:44:37;10.13;;;5.93;;
19312;SDS011;9791;50.820;4.406;2022-08-30T06:47:03;8.63;;;5.82;;
19312;SDS011;9791;50.820;4.406;2022-08-30T06:49:29;11.48;;;6.43;;
19312;SDS011;9791;50.820;4.406;2022-08-30T06:51:55;11.38;;;5.95;;
19312;SDS011;9791;50.820;4.406;2022-08-30T06:54:21;10.27;;;6.20;;
19312;SDS011;9791;50.820;4.406;2022-08-30T06:56:47;11.23;;;7.13;;
19312;SDS011;9791;50.820;4.406;2022-08-30T06:59:13;11.65;;;6.38;;
19312;SDS011;9791;50.820;4.406;2022-08-30T07:01:39;10.55;;;5.75;;
19312;SDS011;9791;50.820;4.406;2022-08-30T07:04:05;11.70;;;6.45;;
19312;SDS011;9791;50.820;4.406;2022-08-30T07:06:32;11.68;;;5.85;;
19312;SDS011;9791;50.820;4.406;2022-08-30T07:08:58;9.88;;;6.10;;
19312;SDS011;9791;50.820;4.406;2022-08-30T07:11:35;9.73;;;6.63;;
19312;SDS011;9791;50.820;4.406;2022-08-30T07:14:01;10.57;;;5.47;;
19312;SDS011;9791;50.820;4.406;2022-08-30T07:16:28;13.82;;;6.18;;
19312;SDS011;9791;50.820;4.406;2022-08-30T07:18:54;10.88;;;5.78;;
19312;SDS011;9791;50.820;4.406;2022-08-30T07:21:22;9.70;;;5.97;;
19312;SDS011;9791;50.820;4.406;2022-08-30T07:23:48;6.90;;;5.05;;
19312;SDS011;9791;50.820;4.406;2022-08-30T07:26:15;12.77;;;5.85;;
19312;SDS011;9791;50.820;4.406;2022-08-30T07:28:42;8.18;;;4.78;;
19312;SDS011;9791;50.820;4.406;2022-08-30T07:31:09;16.40;;;5.47;;
19312;SDS011;9791;50.820;4.406;2022-08-30T07:33:35;10.90;;;5.28;;
19312;SDS011;9791;50.820;4.406;2022-08-30T07:36:01;16.42;;;5.20;;
19312;SDS011;9791;50.820;4.406;2022-08-30T07:38:29;13.30;;;5.20;;
19312;SDS011;9791;50.820;4.406;2022-08-30T07:40:55;11.32;;;4.90;;
19312;SDS011;9791;50.820;4.406;2022-08-30T07:43:25;9.73;;;4.78;;
19312;SDS011;9791;50.820;4.406;2022-08-30T07:45:52;8.18;;;4.65;;
19312;SDS011;9791;50.820;4.406;2022-08-30T07:48:18;10.23;;;4.47;;
19312;SDS011;9791;50.820;4.406;2022-08-30T07:50:44;9.35;;;4.53;;
19312;SDS011;9791;50.820;4.406;2022-08-30T07:53:12;11.00;;;4.75;;
19312;SDS011;9791;50.820;4.406;2022-08-30T07:55:38;7.53;;;4.18;;
19312;SDS011;9791;50.820;4.406;2022-08-30T07:58:04;12.90;;;4.07;;
19312;SDS011;9791;50.820;4.406;2022-08-30T08:00:30;9.23;;;3.88;;
19312;SDS011;9791;50.820;4.406;2022-08-30T08:02:56;11.07;;;4.45;;
19312;SDS011;9791;50.820;4.406;2022-08-30T08:05:22;9.18;;;4.65;;
19312;SDS011;9791;50.820;4.406;2022-08-30T08:07:48;8.43;;;4.07;;
19312;SDS011;9791;50.820;4.406;2022-08-30T08:10:14;7.25;;;3.83;;
19312;SDS011;9791;50.820;4.406;2022-08-30T08:12:41;7.63;;;3.65;;
19312;SDS011;9791;50.820;4.406;2022-08-30T08:15:07;6.80;;;4.20;;
19312;SDS011;9791;50.820;4.406;2022-08-30T08:17:33;8.95;;;3.97;;
19312;SDS011;9791;50.820;4.406;2022-08-30T08:19:59;8.63;;;3.40;;
19312;SDS011;9791;50.820;4.406;2022-08-30T08:22:25;9.18;;;3.85;;
19312;SDS011;9791;50.820;4.406;2022-08-30T08:24:51;10.95;;;3.95;;
19312;SDS011;9791;50.820;4.406;2022-08-30T08:27:18;9.88;;;3.47;;
19312;SDS011;9791;50.820;4.406;2022-08-30T08:29:43;11.10;;;3.17;;
19312;SDS011;9791;50.820;4.406;2022-08-30T08:32:09;9.57;;;3.30;;
19312;SDS011;9791;50.820;4.406;2022-08-30T08:34:35;8.75;;;3.45;;
19312;SDS011;9791;50.820;4.406;2022-08-30T08:37:02;8.63;;;3.20;;
19312;SDS011;9791;50.820;4.406;2022-08-30T08:39:28;8.05;;;3.10;;
19312;SDS011;9791;50.820;4.406;2022-08-30T08:42:10;8.43;;;3.70;;
19312;SDS011;9791;50.820;4.406;2022-08-30T08:44:48;15.80;;;3.13;;
19312;SDS011;9791;50.820;4.406;2022-08-30T08:47:26;6.93;;;3.28;;
19312;SDS011;9791;50.820;4.406;2022-08-30T08:49:56;8.38;;;3.40;;
19312;SDS011;9791;50.820;4.406;2022-08-30T08:52:24;8.52;;;3.00;;
19312;SDS011;9791;50.820;4.406;2022-08-30T08:55:11;8.77;;;2.78;;
19312;SDS011;9791;50.820;4.406;2022-08-30T08:57:38;7.45;;;3.00;;
19312;SDS011;9791;50.820;4.406;2022-08-30T09:00:05;8.85;;;3.17;;
19312;SDS011;9791;50.820;4.406;2022-08-30T09:02:42;6.07;;;2.83;;
19312;SDS011;9791;50.820;4.406;2022-08-30T09:05:12;8.30;;;2.90;;
19312;SDS011;9791;50.820;4.406;2022-08-30T09:07:40;20.52;;;4.70;;
19312;SDS011;9791;50.820;4.406;2022-08-30T09:10:06;16.88;;;3.60;;
19312;SDS011;9791;50.820;4.406;2022-08-30T09:12:32;9.02;;;2.97;;
19312;SDS011;9791;50.820;4.406;2022-08-30T09:15:09;7.63;;;3.13;;
19312;SDS011;9791;50.820;4.406;2022-08-30T09:17:56;9.00;;;2.88;;
19312;SDS011;9791;50.820;4.406;2022-08-30T09:22:54;10.10;;;2.88;;
19312;SDS011;9791;50.820;4.406;2022-08-30T09:25:22;9.73;;;2.72;;
19312;SDS011;9791;50.820;4.406;2022-08-30T09:27:49;5.47;;;2.78;;
19312;SDS011;9791;50.820;4.406;2022-08-30T09:33:00;8.73;;;2.67;;
19312;SDS011;9791;50.820;4.406;2022-08-30T09:35:34;8.15;;;3.15;;
19312;SDS011;9791;50.820;4.406;2022-08-30T09:38:05;7.80;;;3.28;;
19312;SDS011;9791;50.820;4.406;2022-08-30T09:43:02;7.90;;;3.08;;
19312;SDS011;9791;50.820;4.406;2022-08-30T09:45:31;11.18;;;4.10;;
19312;SDS011;9791;50.820;4.406;2022-08-30T09:47:57;7.00;;;2.92;;
19312;SDS011;9791;50.820;4.406;2022-08-30T09:50:23;9.68;;;2.92;;
19312;SDS011;9791;50.820;4.406;2022-08-30T09:53:09;6.72;;;3.10;;
19312;SDS011;9791;50.820;4.406;2022-08-30T09:55:54;6.72;;;2.58;;
19312;SDS011;9791;50.820;4.406;2022-08-30T10:01:10;10.63;;;3.30;;
19312;SDS011;9791;50.820;4.406;2022-08-30T10:03:40;8.35;;;2.50;;
19312;SDS011;9791;50.820;4.406;2022-08-30T10:09:09;6.70;;;2.85;;
19312;SDS011;9791;50.820;4.406;2022-08-30T10:17:05;6.25;;;2.88;;
19312;SDS011;9791;50.820;4.406;2022-08-30T10:24:46;10.00;;;2.88;;
19312;SDS011;9791;50.820;4.406;2022-08-30T10:27:25;6.65;;;2.70;;
19312;SDS011;9791;50.820;4.406;2022-08-30T10:30:00;7.05;;;2.40;;
19312;SDS011;9791;50.820;4.406;2022-08-30T10:32:28;7.70;;;2.75;;
19312;SDS011;9791;50.820;4.406;2022-08-30T10:35:02;7.45;;;2.88;;
19312;SDS011;9791;50.820;4.406;2022-08-30T10:37:30;9.82;;;2.80;;
19312;SDS011;9791;50.820;4.406;2022-08-30T10:39:57;6.45;;;2.58;;
19312;SDS011;9791;50.820;4.406;2022-08-30T10:42:44;7.53;;;2.42;;
19312;SDS011;9791;50.820;4.406;2022-08-30T10:45:12;8.95;;;3.10;;
19312;SDS011;9791;50.820;4.406;2022-08-30T10:50:15;9.07;;;2.70;;
19312;SDS011;9791;50.820;4.406;2022-08-30T10:55:33;6.85;;;2.75;;
19312;SDS011;9791;50.820;4.406;2022-08-30T10:58:00;8.43;;;2.53;;
19312;SDS011;9791;50.820;4.406;2022-08-30T11:03:20;6.00;;;2.38;;
19312;SDS011;9791;50.820;4.406;2022-08-30T11:13:40;8.77;;;2.60;;
19312;SDS011;9791;50.820;4.406;2022-08-30T11:16:08;7.57;;;3.05;;
19312;SDS011;9791;50.820;4.406;2022-08-30T11:18:46;5.10;;;2.53;;
19312;SDS011;9791;50.820;4.406;2022-08-30T11:21:17;10.82;;;2.58;;
19312;SDS011;9791;50.820;4.406;2022-08-30T11:23:56;6.10;;;2.42;;
19312;SDS011;9791;50.820;4.406;2022-08-30T11:29:06;8.20;;;2.20;;
19312;SDS011;9791;50.820;4.406;2022-08-30T11:31:34;5.38;;;2.55;;
19312;SDS011;9791;50.820;4.406;2022-08-30T11:34:00;7.07;;;2.80;;
19312;SDS011;9791;50.820;4.406;2022-08-30T11:39:01;5.53;;;2.40;;
19312;SDS011;9791;50.820;4.406;2022-08-30T11:43:55;15.93;;;3.33;;
19312;SDS011;9791;50.820;4.406;2022-08-30T11:46:37;13.85;;;3.47;;
19312;SDS011;9791;50.820;4.406;2022-08-30T11:57:08;6.88;;;2.65;;
19312;SDS011;9791;50.820;4.406;2022-08-30T12:02:38;9.52;;;2.55;;
19312;SDS011;9791;50.820;4.406;2022-08-30T12:05:04;11.40;;;2.22;;
19312;SDS011;9791;50.820;4.406;2022-08-30T12:10:23;8.43;;;2.35;;
19312;SDS011;9791;50.820;4.406;2022-08-30T12:13:00;10.63;;;3.08;;
19312;SDS011;9791;50.820;4.406;2022-08-30T12:15:27;15.48;;;2.65;;
19312;SDS011;9791;50.820;4.406;2022-08-30T12:18:12;11.35;;;2.60;;
19312;SDS011;9791;50.820;4.406;2022-08-30T12:20:52;12.07;;;2.40;;
19312;SDS011;9791;50.820;4.406;2022-08-30T12:25:48;9.88;;;2.45;;
19312;SDS011;9791;50.820;4.406;2022-08-30T12:28:16;10.60;;;2.90;;
19312;SDS011;9791;50.820;4.406;2022-08-30T12:30:45;7.22;;;2.63;;
19312;SDS011;9791;50.820;4.406;2022-08-30T12:33:12;11.00;;;2.60;;
19312;SDS011;9791;50.820;4.406;2022-08-30T12:35:39;10.85;;;3.15;;
19312;SDS011;9791;50.820;4.406;2022-08-30T12:38:11;13.27;;;3.00;;
19312;SDS011;9791;50.820;4.406;2022-08-30T12:40:37;7.57;;;3.20;;
19312;SDS011;9791;50.820;4.406;2022-08-30T12:43:18;9.30;;;3.05;;
19312;SDS011;9791;50.820;4.406;2022-08-30T12:45:46;7.30;;;2.53;;
19312;SDS011;9791;50.820;4.406;2022-08-30T12:48:14;9.85;;;2.90;;
19312;SDS011;9791;50.820;4.406;2022-08-30T12:50:57;9.95;;;2.65;;
19312;SDS011;9791;50.820;4.406;2022-08-30T12:53:38;8.88;;;2.47;;
19312;SDS011;9791;50.820;4.406;2022-08-30T12:56:14;8.98;;;3.13;;
19312;SDS011;9791;50.820;4.406;2022-08-30T12:58:42;13.52;;;3.42;;
19312;SDS011;9791;50.820;4.406;2022-08-30T13:01:12;11.43;;;2.97;;
19312;SDS011;9791;50.820;4.406;2022-08-30T13:03:39;9.88;;;2.92;;
19312;SDS011;9791;50.820;4.406;2022-08-30T13:06:05;13.05;;;3.15;;
19312;SDS011;9791;50.820;4.406;2022-08-30T13:14:18;8.88;;;2.97;;
19312;SDS011;9791;50.820;4.406;2022-08-30T13:16:36;11.57;;;3.00;;
19312;SDS011;9791;50.820;4.406;2022-08-30T13:21:53;6.68;;;2.67;;
19312;SDS011;9791;50.820;4.406;2022-08-30T13:24:20;9.27;;;2.88;;
19312;SDS011;9791;50.820;4.406;2022-08-30T13:26:47;13.55;;;3.58;;
19312;SDS011;9791;50.820;4.406;2022-08-30T13:29:14;10.43;;;2.40;;
19312;SDS011;9791;50.820;4.406;2022-08-30T13:31:40;7.75;;;2.40;;
19312;SDS011;9791;50.820;4.406;2022-08-30T13:34:08;6.93;;;2.67;;
19312;SDS011;9791;50.820;4.406;2022-08-30T13:36:35;7.82;;;2.38;;
19312;SDS011;9791;50.820;4.406;2022-08-30T13:39:02;8.88;;;2.92;;
19312;SDS011;9791;50.820;4.406;2022-08-30T13:41:29;8.80;;;2.58;;
19312;SDS011;9791;50.820;4.406;2022-08-30T13:43:55;5.45;;;2.60;;
19312;SDS011;9791;50.820;4.406;2022-08-30T13:46:21;6.72;;;3.10;;
19312;SDS011;9791;50.820;4.406;2022-08-30T13:48:49;9.20;;;2.78;;
19312;SDS011;9791;50.820;4.406;2022-08-30T13:51:16;4.68;;;2.20;;
19312;SDS011;9791;50.820;4.406;2022-08-30T13:53:42;6.40;;;2.38;;
19312;SDS011;9791;50.820;4.406;2022-08-30T13:56:08;6.28;;;2.55;;
19312;SDS011;9791;50.820;4.406;2022-08-30T13:58:34;11.82;;;2.65;;
19312;SDS011;9791;50.820;4.406;2022-08-30T14:01:00;8.93;;;2.08;;
19312;SDS011;9791;50.820;4.406;2022-08-30T14:03:26;8.65;;;2.42;;
19312;SDS011;9791;50.820;4.406;2022-08-30T14:05:52;8.02;;;2.10;;
19312;SDS011;9791;50.820;4.406;2022-08-30T14:08:23;11.30;;;2.15;;
19312;SDS011;9791;50.820;4.406;2022-08-30T14:10:49;11.13;;;2.67;;
19312;SDS011;9791;50.820;4.406;2022-08-30T14:13:15;7.60;;;2.45;;
19312;SDS011;9791;50.820;4.406;2022-08-30T14:15:41;9.48;;;2.63;;
19312;SDS011;9791;50.820;4.406;2022-08-30T14:18:07;6.05;;;2.20;;
19312;SDS011;9791;50.820;4.406;2022-08-30T14:20:33;9.40;;;2.63;;
19312;SDS011;9791;50.820;4.406;2022-08-30T14:23:00;6.68;;;2.10;;
19312;SDS011;9791;50.820;4.406;2022-08-30T14:25:26;7.75;;;2.10;;
19312;SDS011;9791;50.820;4.406;2022-08-30T14:27:53;8.20;;;2.30;;
19312;SDS011;9791;50.820;4.406;2022-08-30T14:30:19;5.60;;;1.98;;
19312;SDS011;9791;50.820;4.406;2022-08-30T14:32:45;10.02;;;2.55;;
19312;SDS011;9791;50.820;4.406;2022-08-30T14:35:12;6.00;;;1.98;;
19312;SDS011;9791;50.820;4.406;2022-08-30T14:37:38;7.15;;;2.63;;
19312;SDS011;9791;50.820;4.406;2022-08-30T14:40:04;7.35;;;2.40;;
19312;SDS011;9791;50.820;4.406;2022-08-30T14:42:30;6.18;;;1.95;;
19312;SDS011;9791;50.820;4.406;2022-08-30T14:44:56;6.43;;;2.42;;
19312;SDS011;9791;50.820;4.406;2022-08-30T14:47:22;13.18;;;2.25;;
19312;SDS011;9791;50.820;4.406;2022-08-30T14:49:48;9.23;;;2.33;;
19312;SDS011;9791;50.820;4.406;2022-08-30T14:52:14;6.95;;;2.50;;
19312;SDS011;9791;50.820;4.406;2022-08-30T14:54:40;5.68;;;2.22;;
19312;SDS011;9791;50.820;4.406;2022-08-30T14:57:06;5.25;;;1.80;;
19312;SDS011;9791;50.820;4.406;2022-08-30T14:59:32;7.22;;;1.95;;
19312;SDS011;9791;50.820;4.406;2022-08-30T15:01:58;7.57;;;2.08;;
19312;SDS011;9791;50.820;4.406;2022-08-30T15:04:24;4.35;;;1.70;;
19312;SDS011;9791;50.820;4.406;2022-08-30T15:06:50;6.80;;;2.05;;
19312;SDS011;9791;50.820;4.406;2022-08-30T15:09:18;7.20;;;2.40;;
19312;SDS011;9791;50.820;4.406;2022-08-30T15:11:45;9.63;;;2.40;;
19312;SDS011;9791;50.820;4.406;2022-08-30T15:14:13;6.35;;;2.55;;
19312;SDS011;9791;50.820;4.406;2022-08-30T15:16:39;10.90;;;2.47;;
19312;SDS011;9791;50.820;4.406;2022-08-30T15:19:07;6.45;;;2.22;;
19312;SDS011;9791;50.820;4.406;2022-08-30T15:21:43;6.28;;;2.10;;
19312;SDS011;9791;50.820;4.406;2022-08-30T15:24:11;5.88;;;1.77;;
19312;SDS011;9791;50.820;4.406;2022-08-30T15:26:37;4.53;;;1.95;;
19312;SDS011;9791;50.820;4.406;2022-08-30T15:29:07;9.27;;;2.15;;
19312;SDS011;9791;50.820;4.406;2022-08-30T15:31:34;4.72;;;2.00;;
19312;SDS011;9791;50.820;4.406;2022-08-30T15:34:00;7.82;;;2.78;;
19312;SDS011;9791;50.820;4.406;2022-08-30T15:36:26;10.13;;;2.30;;
19312;SDS011;9791;50.820;4.406;2022-08-30T15:38:53;9.45;;;2.30;;
19312;SDS011;9791;50.820;4.406;2022-08-30T15:41:20;5.38;;;1.75;;
19312;SDS011;9791;50.820;4.406;2022-08-30T15:43:46;6.78;;;1.70;;
19312;SDS011;9791;50.820;4.406;2022-08-30T15:46:20;10.10;;;2.13;;
19312;SDS011;9791;50.820;4.406;2022-08-30T15:48:47;6.20;;;2.38;;
19312;SDS011;9791;50.820;4.406;2022-08-30T15:51:13;6.53;;;2.40;;
19312;SDS011;9791;50.820;4.406;2022-08-30T15:53:41;8.88;;;2.83;;
19312;SDS011;9791;50.820;4.406;2022-08-30T15:56:07;8.27;;;2.50;;
19312;SDS011;9791;50.820;4.406;2022-08-30T15:58:34;7.40;;;2.53;;
19312;SDS011;9791;50.820;4.406;2022-08-30T16:01:00;5.60;;;2.22;;
19312;SDS011;9791;50.820;4.406;2022-08-30T16:03:29;6.22;;;2.00;;
19312;SDS011;9791;50.820;4.406;2022-08-30T16:05:55;7.57;;;1.85;;
19312;SDS011;9791;50.820;4.406;2022-08-30T16:08:21;8.20;;;2.05;;
19312;SDS011;9791;50.820;4.406;2022-08-30T16:10:47;3.90;;;1.98;;
19312;SDS011;9791;50.820;4.406;2022-08-30T16:13:14;13.23;;;2.17;;
19312;SDS011;9791;50.820;4.406;2022-08-30T16:15:40;6.88;;;2.47;;